Time;durP1;ratioP1;P1;durP2;ratioP2;P2;SDS_P1;SDS_P2;PMS_P1;PMS_P2;Temp;Humidity;BMP_temperature;BMP_pressure;BME280_temperature;BME280_humidity;BME280_pressure;Samples;Min_cycle;Max_cycle;Signal;HPM_P1;HPM_P2
2022/03/31 00:02:25;;;;;;;;;;;;;;;16.74;46.61;100528.72;6217351;23;19912;-81
2022/03/31 00:04:50;;;;;;;;;;;;;;;16.74;46.60;100531.34;6242490;23;19912;-81
2022/03/31 00:07:15;;;;;;;;;;;;;;;16.74;46.59;100526.13;6217656;23;19911;-81
2022/03/31 00:09:40;;;;;;;;;;;;;;;16.74;46.55;100534.78;6216976;23;19963;-80
2022/03/31 00:12:07;;;;;;;;;;;;;;;16.74;46.71;100534.78;6218164;23;19955;-81
2022/03/31 00:14:32;;;;;;;;;;;;;;;16.75;46.54;100527.88;6243657;23;19912;-81
2022/03/31 00:16:58;;;;;;;;;;;;;;;16.74;46.71;100532.19;6237660;23;19907;-80
2022/03/31 00:19:23;;;;;;;;;;;;;;;16.74;46.62;100526.13;6235946;23;19915;-81
2022/03/31 00:21:48;;;;;;;;;;;;;;;16.73;46.70;100524.44;6263444;23;19938;-81
2022/03/31 00:24:15;;;;;;;;;;;;;;;16.73;46.38;100524.44;6210393;23;19918;-81
2022/03/31 00:26:40;;;;;;;;;;;;;;;16.73;46.57;100525.28;6235478;23;19911;-81
2022/03/31 00:29:06;;;;;;;;;;;;;;;16.73;46.48;100525.28;6210838;23;19991;-81
2022/03/31 00:31:31;;;;;;;;;;;;;;;16.72;46.59;100514.91;6237980;23;19916;-81
2022/03/31 00:33:56;;;;;;;;;;;;;;;16.72;46.59;100525.28;6215687;23;19959;-81
2022/03/31 00:36:22;;;;;;;;;;;;;;;16.71;46.57;100514.03;6238234;23;19907;-81
2022/03/31 00:41:35;;;;;;;;;;;;;;;16.70;46.42;100512.34;6241935;23;19938;-81
2022/03/31 00:44:00;;;;;;;;;;;;;;;16.71;46.54;100519.25;6237755;23;19915;-81
2022/03/31 00:46:26;;;;;;;;;;;;;;;16.71;46.57;100515.78;6213687;23;19912;-81
2022/03/31 00:48:51;;;;;;;;;;;;;;;16.70;46.58;100506.25;6214162;23;19927;-81
2022/03/31 00:51:16;;;;;;;;;;;;;;;16.69;46.73;100504.56;6213249;23;19923;-81
2022/03/31 00:53:41;;;;;;;;;;;;;;;16.69;46.67;100507.16;6236378;23;19934;-81
2022/03/31 00:56:08;;;;;;;;;;;;;;;16.70;46.55;100506.25;6233050;23;19957;-81
2022/03/31 00:58:33;;;;;;;;;;;;;;;16.69;46.46;100504.56;6260870;23;20078;-81
2022/03/31 01:00:59;;;;;;;;;;;;;;;16.66;46.69;100503.69;6234198;23;20364;-81
2022/03/31 01:03:24;;;;;;;;;;;;;;;16.68;46.63;100503.69;6207361;23;19912;-80
2022/03/31 01:05:49;;;;;;;;;;;;;;;16.67;46.61;100500.22;6204101;23;19943;-80
2022/03/31 01:08:15;;;;;;;;;;;;;;;16.68;46.71;100498.50;6228569;23;19913;-80
2022/03/31 01:10:40;;;;;;;;;;;;;;;16.67;46.63;100495.00;6205477;23;19970;-80
2022/03/31 01:13:06;;;;;;;;;;;;;;;16.68;46.59;100501.09;6205361;23;19934;-80
2022/03/31 01:15:31;;;;;;;;;;;;;;;16.67;46.64;100497.63;6204266;23;20243;-81
2022/03/31 01:17:56;;;;;;;;;;;;;;;16.67;46.63;100492.41;6204548;23;19911;-81
2022/03/31 01:20:25;;;;;;;;;;;;;;;16.66;46.68;100480.31;6230230;23;19975;-80
2022/03/31 01:22:51;;;;;;;;;;;;;;;16.67;46.60;100475.97;6231625;23;19986;-81
2022/03/31 01:25:17;;;;;;;;;;;;;;;16.65;46.58;100483.78;6230269;23;19908;-80
2022/03/31 01:27:44;;;;;;;;;;;;;;;16.66;46.62;100476.88;6230732;23;19931;-80
2022/03/31 01:30:13;;;;;;;;;;;;;;;16.65;46.59;100476.00;6230619;23;20217;-80
2022/03/31 01:32:39;;;;;;;;;;;;;;;16.66;46.59;100477.72;6230877;23;19907;-81
2022/03/31 01:35:04;;;;;;;;;;;;;;;16.65;46.73;100475.13;6231137;23;19952;-80
2022/03/31 01:37:30;;;;;;;;;;;;;;;16.64;46.60;100474.28;6231116;23;19971;-81
2022/03/31 01:39:56;;;;;;;;;;;;;;;16.65;46.67;100472.53;6205735;23;19918;-81
2022/03/31 01:42:22;;;;;;;;;;;;;;;16.65;46.57;100472.53;6232367;23;19963;-80
2022/03/31 01:44:48;;;;;;;;;;;;;;;16.64;46.88;100468.22;6230741;23;19987;-81
2022/03/31 01:47:13;;;;;;;;;;;;;;;16.63;46.69;100464.75;6230324;23;20256;-80
2022/03/31 01:49:38;;;;;;;;;;;;;;;16.64;46.72;100466.50;6206501;23;19959;-81
2022/03/31 01:52:04;;;;;;;;;;;;;;;16.63;46.69;100456.94;6231675;23;19922;-81
2022/03/31 01:54:30;;;;;;;;;;;;;;;16.63;46.76;100446.56;6232528;23;19914;-81
2022/03/31 01:56:55;;;;;;;;;;;;;;;16.62;46.88;100444.00;6210861;23;19912;-81
2022/03/31 01:59:21;;;;;;;;;;;;;;;16.62;46.67;100441.41;6210285;23;19999;-81
2022/03/31 02:01:48;;;;;;;;;;;;;;;16.62;46.70;100438.81;6209732;23;19919;-81
2022/03/31 02:04:13;;;;;;;;;;;;;;;16.63;46.78;100435.31;6261306;23;19955;-80
2022/03/31 02:06:38;;;;;;;;;;;;;;;16.63;46.74;100432.72;6231237;23;19908;-80
2022/03/31 02:09:03;;;;;;;;;;;;;;;16.62;46.75;100431.88;6204193;23;19911;-80
2022/03/31 02:11:30;;;;;;;;;;;;;;;16.61;46.71;100432.75;6206025;23;19963;-80
2022/03/31 02:13:55;;;;;;;;;;;;;;;16.62;46.78;100423.22;6231836;23;20306;-80
2022/03/31 02:16:21;;;;;;;;;;;;;;;16.61;46.66;100431.88;6206531;23;19919;-81
2022/03/31 02:18:46;;;;;;;;;;;;;;;16.61;46.89;100426.69;6235458;23;19912;-81
2022/03/31 02:21:11;;;;;;;;;;;;;;;16.60;46.63;100420.63;6237379;23;19914;-81
2022/03/31 02:23:37;;;;;;;;;;;;;;;16.60;46.89;100425.84;6236830;23;19939;-81
2022/03/31 02:26:02;;;;;;;;;;;;;;;16.61;46.92;100421.50;6213166;23;19935;-81
2022/03/31 02:28:30;;;;;;;;;;;;;;;16.61;46.82;100424.09;6243113;23;19919;-82
2022/03/31 02:30:55;;;;;;;;;;;;;;;16.60;46.72;100418.03;6217472;23;19963;-82
2022/03/31 02:33:21;;;;;;;;;;;;;;;16.60;46.72;100412.84;6214371;23;19918;-81
2022/03/31 02:35:46;;;;;;;;;;;;;;;16.59;46.76;100416.34;6207827;23;20279;-80
2022/03/31 02:38:12;;;;;;;;;;;;;;;16.60;46.87;100420.63;6232003;23;19935;-81
2022/03/31 02:40:37;;;;;;;;;;;;;;;16.60;46.95;100409.38;6207369;23;19927;-81
2022/03/31 02:43:03;;;;;;;;;;;;;;;16.58;46.81;100404.22;6232009;23;19923;-80
2022/03/31 02:45:28;;;;;;;;;;;;;;;16.60;46.66;100404.19;6231761;23;19912;-81
2022/03/31 02:47:54;;;;;;;;;;;;;;;16.59;46.68;100400.75;6206785;23;19912;-80
2022/03/31 02:50:19;;;;;;;;;;;;;;;16.59;46.91;100413.75;6231113;23;19923;-80
2022/03/31 02:55:32;;;;;;;;;;;;;;;16.59;46.90;100405.94;6259402;23;19959;-81
2022/03/31 02:58:00;;;;;;;;;;;;;;;16.58;46.70;100408.53;6205648;23;20222;-81
2022/03/31 03:00:26;;;;;;;;;;;;;;;16.58;46.78;100403.34;6231448;23;19907;-81
2022/03/31 03:02:51;;;;;;;;;;;;;;;16.58;46.70;100395.56;6230864;23;19930;-80
2022/03/31 03:05:17;;;;;;;;;;;;;;;16.57;46.97;100388.63;6207708;23;19965;-80
2022/03/31 03:07:42;;;;;;;;;;;;;;;16.57;46.77;100393.81;6231861;23;19930;-81
2022/03/31 03:10:07;;;;;;;;;;;;;;;16.56;46.91;100389.53;6208180;23;19932;-81
2022/03/31 03:12:33;;;;;;;;;;;;;;;16.57;46.73;100386.03;6209027;23;19959;-81
2022/03/31 03:14:58;;;;;;;;;;;;;;;16.57;46.72;100383.44;6235118;23;19918;-81
2022/03/31 03:17:23;;;;;;;;;;;;;;;16.56;46.73;100386.94;6210117;23;19912;-80
2022/03/31 03:19:49;;;;;;;;;;;;;;;16.56;46.74;100384.31;6210365;23;19911;-81
2022/03/31 03:22:14;;;;;;;;;;;;;;;16.56;46.84;100376.53;6238645;23;19908;-81
2022/03/31 03:24:39;;;;;;;;;;;;;;;16.55;46.84;100374.81;6215993;23;19911;-80
2022/03/31 03:27:05;;;;;;;;;;;;;;;16.55;46.82;100377.41;6240249;23;19912;-81
2022/03/31 03:29:30;;;;;;;;;;;;;;;16.55;46.88;100369.59;6237662;23;19915;-81
2022/03/31 03:31:55;;;;;;;;;;;;;;;16.54;46.89;100363.56;6239158;23;19915;-81
2022/03/31 03:34:20;;;;;;;;;;;;;;;16.54;46.98;100358.38;6214497;23;19911;-81
2022/03/31 03:36:46;;;;;;;;;;;;;;;16.54;46.76;100349.72;6266806;23;20335;-81
2022/03/31 03:39:11;;;;;;;;;;;;;;;16.54;46.66;100341.94;6213162;23;19958;-81
2022/03/31 03:41:37;;;;;;;;;;;;;;;16.53;46.85;100342.81;6238289;23;19920;-81
2022/03/31 03:44:03;;;;;;;;;;;;;;;16.53;46.85;100354.06;6212647;23;20236;-81
2022/03/31 03:46:28;;;;;;;;;;;;;;;16.53;46.61;100350.63;6237428;23;19907;-81
2022/03/31 03:48:54;;;;;;;;;;;;;;;16.53;46.88;100348.88;6212086;23;19932;-81
2022/03/31 03:51:19;;;;;;;;;;;;;;;16.53;46.99;100350.63;6237748;23;19943;-81
2022/03/31 03:53:44;;;;;;;;;;;;;;;16.53;46.84;100351.47;6212291;23;20320;-81
2022/03/31 03:56:10;;;;;;;;;;;;;;;16.53;46.94;100348.00;6240681;23;19939;-82
2022/03/31 03:58:35;;;;;;;;;;;;;;;16.52;46.71;100339.34;6216897;23;19912;-82
2022/03/31 04:01:00;;;;;;;;;;;;;;;16.52;46.79;100343.69;6238964;23;19908;-81
2022/03/31 04:03:26;;;;;;;;;;;;;;;16.52;46.90;100341.94;6212309;23;19912;-81
2022/03/31 04:05:51;;;;;;;;;;;;;;;16.53;46.92;100335.88;6239111;23;19912;-81
2022/03/31 04:08:17;;;;;;;;;;;;;;;16.51;46.88;100327.25;6212624;23;19911;-81
2022/03/31 04:10:42;;;;;;;;;;;;;;;16.51;47.03;100331.59;6264059;23;19912;-81
2022/03/31 04:13:07;;;;;;;;;;;;;;;16.50;46.89;100325.50;6237958;23;20240;-81
2022/03/31 04:15:40;;;;;;;;;;;;;;;16.49;46.82;100321.22;6212458;23;19911;-82
2022/03/31 04:18:08;;;;;;;;;;;;;;;16.50;47.01;100324.66;6261211;23;19955;-81
2022/03/31 04:20:40;;;;;;;;;;;;;;;16.50;46.73;100330.72;6264766;23;19931;-82
2022/03/31 04:23:24;;;;;;;;;;;;;;;16.50;46.96;100324.66;6265847;23;19908;-82
2022/03/31 04:25:59;;;;;;;;;;;;;;;16.48;46.86;100322.06;6261175;23;19908;-80
2022/03/31 04:28:26;;;;;;;;;;;;;;;16.48;47.15;100324.66;6260601;23;19911;-81
2022/03/31 04:31:26;;;;;;;;;;;;;;;16.48;46.89;100319.47;6270229;23;19966;-81
2022/03/31 04:34:13;;;;;;;;;;;;;;;16.49;46.96;100321.22;6268408;23;19908;-81
2022/03/31 04:36:57;;;;;;;;;;;;;;;16.48;46.96;100318.63;6267293;23;19908;-81
2022/03/31 04:39:43;;;;;;;;;;;;;;;16.48;46.99;100324.66;6244520;23;19908;-81
2022/03/31 04:42:24;;;;;;;;;;;;;;;16.47;46.91;100322.97;6250339;22;19907;-81
2022/03/31 04:44:54;;;;;;;;;;;;;;;16.48;46.82;100329.00;6234972;23;19986;-81
2022/03/31 04:47:21;;;;;;;;;;;;;;;16.47;47.13;100328.16;6208209;23;19919;-80
2022/03/31 04:50:02;;;;;;;;;;;;;;;16.48;47.05;100331.59;6207810;23;19912;-81
2022/03/31 04:52:33;;;;;;;;;;;;;;;16.48;46.89;100334.22;6216322;23;19908;-81
2022/03/31 04:55:19;;;;;;;;;;;;;;;16.47;47.00;100338.56;6209472;23;19912;-81
2022/03/31 04:57:49;;;;;;;;;;;;;;;16.48;47.05;100329.00;6232190;23;19908;-81
2022/03/31 05:00:31;;;;;;;;;;;;;;;16.48;46.99;100329.88;6226999;23;19912;-81
2022/03/31 05:03:04;;;;;;;;;;;;;;;16.46;46.91;100329.03;6210769;23;19908;-81
2022/03/31 05:05:48;;;;;;;;;;;;;;;16.47;47.08;100329.91;6210500;23;19908;-81
2022/03/31 05:08:14;;;;;;;;;;;;;;;16.47;46.89;100329.91;6236020;23;19976;-81
2022/03/31 05:13:37;;;;;;;;;;;;;;;16.48;47.13;100329.00;6239399;23;19958;-82
2022/03/31 05:16:02;;;;;;;;;;;;;;;16.47;47.20;100330.75;6195888;23;19963;-77
2022/03/31 05:18:28;;;;;;;;;;;;;;;16.48;47.01;100329.88;6190938;23;19908;-77
2022/03/31 05:20:54;;;;;;;;;;;;;;;16.51;47.33;100329.00;6198487;23;19935;-79
2022/03/31 05:32:54;;;;;;;;;;;;;;;17.01;47.72;100317.91;6242446;22;19914;-86
2022/03/31 05:38:46;;;;;;;;;;;;;;;17.08;47.53;100316.06;6240091;23;19943;-83
2022/03/31 05:41:38;;;;;;;;;;;;;;;17.10;47.63;100311.69;6115568;23;19908;-84
2022/03/31 05:44:30;;;;;;;;;;;;;;;17.13;47.66;100318.59;6165365;23;19986;-84
2022/03/31 05:47:22;;;;;;;;;;;;;;;17.15;47.71;100322.88;6128022;23;19957;-83
2022/03/31 05:56:35;;;;;;;;;;;;;;;17.20;47.54;100315.88;6150603;23;19952;-82
2022/03/31 05:59:42;;;;;;;;;;;;;;;17.22;47.41;100318.44;6094074;23;19976;-82
2022/03/31 06:05:20;;;;;;;;;;;;;;;17.26;47.24;100314.91;6094707;23;19901;-83
2022/03/31 06:20:14;;;;;;;;;;;;;;;17.19;46.99;100318.50;6065221;23;19913;-84
2022/03/31 06:23:23;;;;;;;;;;;;;;;17.16;47.23;100313.31;6151909;23;19901;-84
2022/03/31 06:29:01;;;;;;;;;;;;;;;17.11;47.29;100313.41;6154679;23;19977;-83
2022/03/31 06:31:27;;;;;;;;;;;;;;;17.11;47.51;100318.59;6171534;23;19948;-81
2022/03/31 06:33:53;;;;;;;;;;;;;;;17.08;47.23;100323.88;6167388;23;19916;-80
2022/03/31 06:36:19;;;;;;;;;;;;;;;17.08;47.17;100331.66;6142082;23;19912;-81
2022/03/31 06:38:46;;;;;;;;;;;;;;;17.06;47.16;100331.69;6171127;23;20304;-82
2022/03/31 06:41:15;;;;;;;;;;;;;;;17.05;47.27;100329.97;6142952;23;19908;-82
2022/03/31 06:43:44;;;;;;;;;;;;;;;17.04;47.21;100328.25;6184107;23;20309;-81
2022/03/31 06:46:11;;;;;;;;;;;;;;;17.04;47.18;100324.78;6180659;23;19913;-82
2022/03/31 06:51:55;;;;;;;;;;;;;;;17.07;47.07;100329.94;6204161;23;19956;-83
2022/03/31 06:54:21;;;;;;;;;;;;;;;17.08;46.79;100338.59;6165649;23;19920;-82
2022/03/31 06:56:48;;;;;;;;;;;;;;;17.08;46.93;100336.00;6168264;23;19912;-82
2022/03/31 06:59:15;;;;;;;;;;;;;;;17.06;46.76;100336.88;6232412;23;19934;-82
2022/03/31 07:01:41;;;;;;;;;;;;;;;17.08;46.85;100334.25;6232552;23;19931;-80
2022/03/31 07:04:07;;;;;;;;;;;;;;;17.08;46.71;100328.22;6207878;23;20316;-82
2022/03/31 07:06:34;;;;;;;;;;;;;;;17.08;46.78;100334.25;6206165;23;19939;-81
2022/03/31 07:08:59;;;;;;;;;;;;;;;17.06;46.54;100331.69;6200279;23;20317;-81
2022/03/31 07:11:26;;;;;;;;;;;;;;;17.06;46.64;100318.69;6178409;23;19990;-81
2022/03/31 07:13:52;;;;;;;;;;;;;;;17.11;46.35;100325.56;6227593;23;19908;-81
2022/03/31 07:16:18;;;;;;;;;;;;;;;17.31;46.21;100320.03;6203349;23;19956;-81
2022/03/31 07:18:43;;;;;;;;;;;;;;;17.48;46.07;100318.00;6203351;23;19908;-80
2022/03/31 07:21:09;;;;;;;;;;;;;;;17.47;45.89;100318.91;6261714;22;19919;-80
2022/03/31 07:23:34;;;;;;;;;;;;;;;17.63;45.69;100317.72;6261463;22;19919;-81
2022/03/31 07:25:59;;;;;;;;;;;;;;;17.72;45.60;100316.69;6265290;22;19911;-80
2022/03/31 07:28:26;;;;;;;;;;;;;;;17.72;45.31;100310.63;6235732;22;19912;-80
2022/03/31 07:30:51;;;;;;;;;;;;;;;17.79;45.08;100315.72;6260538;22;19918;-80
2022/03/31 07:33:18;;;;;;;;;;;;;;;17.91;44.88;100303.38;6288257;22;19927;-80
2022/03/31 07:35:44;;;;;;;;;;;;;;;17.79;45.00;100310.50;6259250;22;19911;-81
2022/03/31 07:38:10;;;;;;;;;;;;;;;17.77;45.11;100311.41;6288476;22;19908;-80
2022/03/31 07:40:37;;;;;;;;;;;;;;;17.89;44.71;100303.41;6287409;22;19908;-80
2022/03/31 07:43:04;;;;;;;;;;;;;;;17.79;45.03;100304.44;6259993;22;19908;-80
2022/03/31 07:45:30;;;;;;;;;;;;;;;17.61;45.25;100309.09;6286651;22;19951;-80
2022/03/31 07:47:55;;;;;;;;;;;;;;;17.65;45.16;100295.13;6259594;22;20049;-80
2022/03/31 07:50:21;;;;;;;;;;;;;;;17.70;45.30;100295.03;6233789;22;19919;-80
2022/03/31 07:52:47;;;;;;;;;;;;;;;17.73;45.08;100296.75;6258466;22;19987;-80
2022/03/31 07:55:13;;;;;;;;;;;;;;;17.61;45.09;100288.28;6256680;22;20236;-80
2022/03/31 07:57:39;;;;;;;;;;;;;;;17.53;45.35;100292.78;6256931;22;19961;-80
2022/03/31 08:00:05;;;;;;;;;;;;;;;17.44;45.48;100288.59;6257496;22;20346;-80
2022/03/31 08:02:31;;;;;;;;;;;;;;;17.38;45.39;100293.06;6253699;22;20335;-80
2022/03/31 08:04:56;;;;;;;;;;;;;;;17.31;45.63;100294.91;6254430;22;19908;-80
2022/03/31 08:07:21;;;;;;;;;;;;;;;17.27;45.66;100295.84;6229107;22;19916;-81
2022/03/31 08:09:47;;;;;;;;;;;;;;;17.25;45.80;100300.19;6253326;22;19915;-80
2022/03/31 08:12:12;;;;;;;;;;;;;;;17.24;45.73;100288.91;6228352;22;19958;-80
2022/03/31 08:17:08;;;;;;;;;;;;;;;17.26;45.90;100284.53;6282269;22;19903;-84
2022/03/31 08:33:29;;;;;;;;;;;;;;;17.49;45.05;100298.91;6270023;22;19903;-81
2022/03/31 10:34:09;;;;;;;;;;;;;;;17.62;44.97;100256.19;6250576;22;20747;31
2022/03/31 10:37:14;;;;;;;;;;;;;;;17.57;45.32;100247.63;6248907;22;19911;-82
2022/03/31 10:39:56;;;;;;;;;;;;;;;17.56;45.19;100251.09;6301975;22;20304;-81
2022/03/31 12:16:05;;;;;;;;;;;;;;;17.25;45.53;100256.00;6336931;22;19918;-83
2022/03/31 12:25:21;;;;;;;;;;;;;;;17.25;45.46;100259.44;6243727;22;19907;-83
2022/03/31 12:31:37;;;;;;;;;;;;;;;17.35;45.45;100265.31;6182564;23;19943;-83
2022/03/31 12:51:01;;;;;;;;;;;;;;;17.33;45.21;100269.69;6290613;22;19968;-82
2022/03/31 12:53:38;;;;;;;;;;;;;;;17.35;45.29;100278.31;6308069;22;19907;-82
2022/03/31 13:09:28;;;;;;;;;;;;;;;17.64;44.87;100270.03;6288610;22;19919;-81
2022/03/31 13:12:36;;;;;;;;;;;;;;;17.64;45.10;100276.97;6264897;22;19922;-81
2022/03/31 16:11:18;;;;;;;;;;;;;;;17.12;44.79;100259.69;6242697;23;19927;-80
2022/03/31 16:13:45;;;;;;;;;;;;;;;17.13;44.83;100258.78;6241448;22;19919;-80
2022/03/31 16:16:10;;;;;;;;;;;;;;;17.12;44.91;100262.28;6264524;23;19922;-80
2022/03/31 16:18:35;;;;;;;;;;;;;;;17.12;44.81;100264.88;6263123;22;19935;-79
2022/03/31 16:21:03;;;;;;;;;;;;;;;17.13;44.95;100254.44;6261898;23;19912;-79
2022/03/31 16:26:19;;;;;;;;;;;;;;;17.20;45.17;100257.78;6287511;22;19942;-81
2022/03/31 16:28:47;;;;;;;;;;;;;;;17.21;45.26;100260.38;6303825;22;19908;-80
2022/03/31 16:31:13;;;;;;;;;;;;;;;17.22;45.23;100262.09;6302687;22;19916;-80
2022/03/31 16:33:57;;;;;;;;;;;;;;;17.24;45.49;100262.06;6302054;22;19915;-80
2022/03/31 16:36:23;;;;;;;;;;;;;;;17.26;45.70;100263.75;6288188;22;19908;-81
2022/03/31 16:38:53;;;;;;;;;;;;;;;17.27;45.85;100257.69;6302123;22;19914;-82
2022/03/31 16:41:20;;;;;;;;;;;;;;;17.28;46.12;100250.72;6291755;22;19911;-81
2022/03/31 16:43:48;;;;;;;;;;;;;;;17.31;46.50;100260.22;6295137;22;19891;-80
2022/03/31 16:46:14;;;;;;;;;;;;;;;17.31;46.98;100253.28;6287828;22;19911;-79
2022/03/31 16:48:40;;;;;;;;;;;;;;;17.32;47.18;100257.59;6286307;22;19930;-80
2022/03/31 16:51:07;;;;;;;;;;;;;;;17.33;47.26;100259.28;6286626;22;20375;-80
2022/03/31 16:53:32;;;;;;;;;;;;;;;17.33;47.04;100259.28;6263486;22;19911;-79
2022/03/31 16:55:58;;;;;;;;;;;;;;;17.34;47.10;100263.63;6293965;22;19891;-80
2022/03/31 16:58:23;;;;;;;;;;;;;;;17.34;47.30;100250.63;6291795;22;19937;-79
2022/03/31 17:00:48;;;;;;;;;;;;;;;17.35;47.32;100256.69;6291774;22;19911;-79
2022/03/31 17:03:14;;;;;;;;;;;;;;;17.36;47.09;100255.81;6290768;22;19911;-80
2022/03/31 17:05:39;;;;;;;;;;;;;;;17.36;47.23;100259.25;6263962;22;19934;-79
2022/03/31 17:08:05;;;;;;;;;;;;;;;17.37;47.04;100260.09;6257718;22;19912;-79
2022/03/31 17:10:30;;;;;;;;;;;;;;;17.38;46.99;100264.44;6287584;22;19911;-80
2022/03/31 17:12:56;;;;;;;;;;;;;;;17.37;47.18;100253.16;6293358;22;19907;-80
2022/03/31 17:15:28;;;;;;;;;;;;;;;17.39;47.14;100253.13;6294699;22;19951;-80
2022/03/31 17:17:58;;;;;;;;;;;;;;;17.40;47.08;100244.47;6290440;22;19929;-80
2022/03/31 17:20:23;;;;;;;;;;;;;;;17.41;46.91;100254.81;6286062;22;19908;-79
2022/03/31 17:22:49;;;;;;;;;;;;;;;17.42;46.86;100253.06;6260615;22;19919;-79
2022/03/31 17:25:14;;;;;;;;;;;;;;;17.42;46.91;100256.56;6288446;22;19914;-78
2022/03/31 17:27:39;;;;;;;;;;;;;;;17.43;46.65;100254.81;6314058;22;19955;-79
2022/03/31 17:30:13;;;;;;;;;;;;;;;17.44;46.83;100252.19;6326674;22;19942;-82
2022/03/31 17:32:41;;;;;;;;;;;;;;;17.44;47.26;100259.97;6319029;22;19947;-81
2022/03/31 17:35:08;;;;;;;;;;;;;;;17.44;47.45;100259.09;6328502;22;19907;-80
2022/03/31 17:37:40;;;;;;;;;;;;;;;17.42;47.55;100261.75;6294740;22;19935;-81
2022/03/31 17:40:06;;;;;;;;;;;;;;;17.43;47.60;100267.81;6300072;22;19907;-79
2022/03/31 17:42:52;;;;;;;;;;;;;;;17.42;47.39;100266.06;6326720;22;19907;-80
2022/03/31 17:45:22;;;;;;;;;;;;;;;17.41;47.53;100273.03;6289767;22;20002;-78
2022/03/31 17:47:47;;;;;;;;;;;;;;;17.39;47.38;100276.53;6289306;22;19918;-79
2022/03/31 17:50:13;;;;;;;;;;;;;;;17.37;47.66;100271.38;6299174;22;19954;-80
2022/03/31 17:52:39;;;;;;;;;;;;;;;17.36;47.70;100276.63;6326512;22;19914;-79
2022/03/31 17:55:06;;;;;;;;;;;;;;;17.34;47.64;100281.84;6328853;22;19891;-79
2022/03/31 17:57:35;;;;;;;;;;;;;;;17.32;47.53;100280.16;6297230;22;20009;-79
2022/03/31 18:00:01;;;;;;;;;;;;;;;17.31;47.63;100292.31;6301520;22;19907;-80
2022/03/31 18:02:26;;;;;;;;;;;;;;;17.30;47.74;100293.16;6274411;22;19911;-79
2022/03/31 18:04:51;;;;;;;;;;;;;;;17.28;47.61;100289.72;6292452;22;20231;-81
2022/03/31 18:07:17;;;;;;;;;;;;;;;17.27;47.45;100301.03;6262068;22;19989;-79
2022/03/31 18:09:45;;;;;;;;;;;;;;;17.27;47.49;100306.22;6285815;22;19911;-79
2022/03/31 18:12:11;;;;;;;;;;;;;;;17.25;47.52;100310.59;6312901;22;19938;-79
2022/03/31 18:14:38;;;;;;;;;;;;;;;17.24;47.45;100309.72;6285381;22;19930;-79
2022/03/31 18:17:03;;;;;;;;;;;;;;;17.24;47.57;100314.06;6287577;22;19911;-79
2022/03/31 18:19:29;;;;;;;;;;;;;;;17.22;47.60;100321.91;6287458;22;19934;-79
2022/03/31 18:21:54;;;;;;;;;;;;;;;17.22;47.50;100323.63;6263107;22;19911;-79
2022/03/31 18:24:20;;;;;;;;;;;;;;;17.20;47.17;100323.69;6286616;22;19907;-79
2022/03/31 18:26:46;;;;;;;;;;;;;;;17.20;47.23;100330.59;6285354;22;20359;-79
2022/03/31 18:29:11;;;;;;;;;;;;;;;17.20;47.37;100335.81;6284415;22;19914;-79
2022/03/31 18:34:20;;;;;;;;;;;;;;;17.19;47.28;100339.28;6290881;22;19934;-79
2022/03/31 18:36:46;;;;;;;;;;;;;;;17.18;47.29;100338.44;6285458;22;20315;-79
2022/03/31 18:39:11;;;;;;;;;;;;;;;17.18;47.08;100355.75;6285798;22;20288;-79
2022/03/31 18:41:39;;;;;;;;;;;;;;;17.17;46.99;100359.25;6285463;22;19907;-79
2022/03/31 18:44:05;;;;;;;;;;;;;;;17.17;47.01;100367.06;6312290;22;19907;-79
2022/03/31 18:46:31;;;;;;;;;;;;;;;17.17;46.93;100365.31;6313632;22;20417;-79
2022/03/31 18:49:03;;;;;;;;;;;;;;;17.17;46.96;100367.06;6286720;22;19907;-79
2022/03/31 18:51:29;;;;;;;;;;;;;;;17.16;47.10;100374.00;6317775;22;19946;-78
2022/03/31 18:53:55;;;;;;;;;;;;;;;17.16;47.01;100378.31;6271125;22;19918;-79
2022/03/31 18:56:21;;;;;;;;;;;;;;;17.16;46.70;100386.13;6284842;22;19973;-79
2022/03/31 18:59:14;;;;;;;;;;;;;;;17.15;46.94;100387.88;6291076;22;19919;-81
2022/03/31 19:01:42;;;;;;;;;;;;;;;17.15;46.94;100394.81;6295163;22;19933;-81
2022/03/31 19:04:25;;;;;;;;;;;;;;;17.15;47.21;100385.28;6297657;22;19907;-81
2022/03/31 19:07:04;;;;;;;;;;;;;;;17.15;47.12;100394.81;6291470;22;19907;-81
2022/03/31 19:15:28;;;;;;;;;;;;;;;17.13;46.98;100413.03;6314401;22;19923;-80
2022/03/31 19:17:54;;;;;;;;;;;;;;;17.12;46.96;100408.72;6295321;22;19914;-80
2022/03/31 19:20:20;;;;;;;;;;;;;;;17.12;47.07;100400.94;6294274;22;20251;-80
2022/03/31 19:23:04;;;;;;;;;;;;;;;17.12;47.05;100402.69;6299844;22;19913;-81
2022/03/31 19:25:32;;;;;;;;;;;;;;;17.11;47.21;100404.41;6274105;22;19907;-81
2022/03/31 19:27:58;;;;;;;;;;;;;;;17.11;47.03;100419.16;6298312;22;19907;-81
2022/03/31 19:30:23;;;;;;;;;;;;;;;17.11;46.96;100421.75;6324221;22;19953;-81
2022/03/31 19:32:49;;;;;;;;;;;;;;;17.10;46.95;100426.09;6295298;22;19907;-80
2022/03/31 19:35:15;;;;;;;;;;;;;;;17.09;47.07;100424.34;6266554;22;19938;-80
2022/03/31 19:37:40;;;;;;;;;;;;;;;17.09;46.85;100429.56;6320985;22;19907;-80
2022/03/31 19:40:13;;;;;;;;;;;;;;;17.10;47.01;100446.03;6295378;22;19907;-81
2022/03/31 19:42:39;;;;;;;;;;;;;;;17.10;46.78;100446.03;6302394;22;19911;-81
2022/03/31 19:45:05;;;;;;;;;;;;;;;17.08;46.86;100440.00;6321014;22;19986;-81
2022/03/31 19:50:33;;;;;;;;;;;;;;;17.07;46.64;100467.72;6332502;22;19976;-80
2022/03/31 19:53:00;;;;;;;;;;;;;;;17.06;46.52;100459.06;6296847;22;19907;-79
2022/03/31 19:55:25;;;;;;;;;;;;;;;17.08;46.63;100463.41;6288759;22;19961;-80
2022/03/31 19:57:51;;;;;;;;;;;;;;;17.06;46.54;100466.84;6262645;22;19911;-80
2022/03/31 20:00:22;;;;;;;;;;;;;;;17.06;46.60;100484.19;6291689;22;19907;-80
2022/03/31 20:02:48;;;;;;;;;;;;;;;17.06;46.44;100484.19;6289692;22;19914;-80
2022/03/31 20:05:13;;;;;;;;;;;;;;;17.05;46.69;100492.91;6330881;22;19891;-80
2022/03/31 20:07:38;;;;;;;;;;;;;;;17.04;46.55;100497.22;6276909;22;19911;-79
2022/03/31 20:10:04;;;;;;;;;;;;;;;17.04;46.42;100497.22;6289114;22;19911;-80
2022/03/31 20:12:29;;;;;;;;;;;;;;;17.04;46.31;100502.41;6292193;22;19907;-80
2022/03/31 20:14:55;;;;;;;;;;;;;;;17.03;46.38;100508.50;6268878;22;20315;-81
2022/03/31 20:17:23;;;;;;;;;;;;;;;17.03;46.63;100505.06;6273220;22;19946;-81
2022/03/31 20:19:48;;;;;;;;;;;;;;;17.03;46.41;100515.44;6296950;22;19906;-80
2022/03/31 20:22:20;;;;;;;;;;;;;;;17.02;46.35;100530.16;6300010;22;19956;-81
2022/03/31 20:24:52;;;;;;;;;;;;;;;17.02;46.21;100531.91;6323113;22;19907;-81
2022/03/31 20:27:18;;;;;;;;;;;;;;;17.02;46.44;100535.38;6300414;22;19940;-81
2022/03/31 20:29:44;;;;;;;;;;;;;;;17.01;46.27;100536.25;6277223;22;19906;-80
2022/03/31 20:32:10;;;;;;;;;;;;;;;17.01;46.19;100527.59;6297635;22;19945;-81
2022/03/31 20:34:37;;;;;;;;;;;;;;;16.99;46.18;100538.00;6324482;22;20213;-80
2022/03/31 20:37:03;;;;;;;;;;;;;;;16.99;46.25;100539.75;6296302;22;19907;-80
2022/03/31 20:39:29;;;;;;;;;;;;;;;16.99;46.05;100548.41;6295394;22;19914;-80
2022/03/31 20:41:54;;;;;;;;;;;;;;;16.98;45.97;100548.41;6296560;22;19911;-80
2022/03/31 20:44:20;;;;;;;;;;;;;;;16.98;46.22;100543.22;6298845;22;19929;-80
2022/03/31 20:46:45;;;;;;;;;;;;;;;16.98;45.82;100548.41;6321404;22;19914;-79
2022/03/31 20:49:11;;;;;;;;;;;;;;;16.98;45.95;100557.06;6293356;22;19922;-79
2022/03/31 20:51:36;;;;;;;;;;;;;;;16.96;45.80;100553.66;6268886;22;19922;-79
2022/03/31 20:54:01;;;;;;;;;;;;;;;16.94;46.08;100560.63;6294038;22;19914;-79
2022/03/31 20:56:27;;;;;;;;;;;;;;;16.93;45.93;100569.28;6296650;22;19913;-80
2022/03/31 20:58:52;;;;;;;;;;;;;;;16.93;45.79;100568.41;6301570;22;19914;-80
2022/03/31 21:01:18;;;;;;;;;;;;;;;16.91;45.85;100571.03;6301574;22;19918;-80
2022/03/31 21:03:44;;;;;;;;;;;;;;;16.91;45.99;100563.22;6302891;22;19915;-80
2022/03/31 21:06:10;;;;;;;;;;;;;;;16.91;45.77;100567.56;6303561;22;19922;-80
2022/03/31 21:08:36;;;;;;;;;;;;;;;16.90;45.73;100571.91;6302056;22;19930;-79
2022/03/31 21:11:01;;;;;;;;;;;;;;;16.88;45.73;100571.06;6296795;22;19926;-79